WALL Airport Information

Runway Information
Runway 07 Length 8185 ft width 148 ft
Elevation 12 ft Threshold 0 ft Heading 67
Runway 25 Length 8185 ft Width 148 ft
Elevation 12 ft Threshold 0 ft Heading 247
Airport Frequencies
Type APP Name BALIKPAPAN Frequency 120.4 MHZ
Type ATIS Name ATIS Frequency 127.6 MHZ
Type INFO Name BALIKPAPAN Frequency 341.6 MHZ
Type TWR Name TWR Frequency 118.1 MHZ
Airport Navaids
Type VOR-DME Name Balikpapan Frequency 117200 KHZ
Type NDB Name Balikpapan Frequency 365 KHZ
Airport Weather Information & NOTAM
ADDS - METARS form results

(2350 UTC 24 January 2022)
Data provider http://aviationweather.gov/metar/data/
 
METAR text: WALL 242330Z 00000KT 9999 SCT018 25/23 Q1007 NOSIG
Conditions at: WALL (SEPINGGAN , ID) observed 2330 UTC 24 January 2022
Temperature: 25.0°C (77°F)
Dewpoint: 23.0°C (73°F) [RH = 89%]
Pressure (altimeter): 29.73 inches Hg (1007.0 mb)
Winds: calm
Visibility: 6 or more miles (10+ km)
Ceiling: at least 12,000 feet AGL
Clouds: scattered clouds at 1800 feet AGL
Weather: no significant weather observed at this time

METAR text: WALL 242300Z 24002KT 9999 SCT018 25/23 Q1007 NOSIG
Conditions at: WALL (SEPINGGAN , ID) observed 2300 UTC 24 January 2022
Temperature: 25.0°C (77°F)
Dewpoint: 23.0°C (73°F) [RH = 89%]
Pressure (altimeter): 29.73 inches Hg (1007.0 mb)
Winds: from the WSW (240 degrees) at 2 MPH (2 knots; 1.0 m/s)
Visibility: 6 or more miles (10+ km)
Ceiling: at least 12,000 feet AGL
Clouds: scattered clouds at 1800 feet AGL
Weather: no significant weather observed at this time

Forecast for: WALL (SEPINGGAN , ID)
Text: TAF WALL 242300Z 2500/2606 24005KT 9999 SCT018
Forecast period: 0000 to 0300 UTC 25 January 2022
Forecast type: FROM: standard forecast or significant change
Winds: from the WSW (240 degrees) at 6 MPH (5 knots; 2.6 m/s)
Visibility: 6 or more miles (10+ km)
Ceiling: at least 12,000 feet AGL
Clouds: scattered clouds at 1800 feet AGL
Weather: no significant weather forecast for this period
Text: TEMPO 2500/2502 FEW018CB
Forecast period: 0000 to 0200 UTC 25 January 2022
Forecast type: TEMPORARY: The following changes expected for less than half the time period
Visibility: missing
Ceiling: at least 12,000 feet AGL
Clouds: few clouds at 1800 feet AGL
Weather: no significant weather forecast for this period
Text: BECMG 2503/2506 20005KT
Forecast period: 0300 UTC 25 January 2022 to 0600 UTC 26 January 2022
Forecast type: BECOMING: Conditions expected to become as follows by 0600 UTC 25 January 2022
Winds: from the SSW (200 degrees) at 6 MPH (5 knots; 2.6 m/s)
Visibility: 6 or more miles (10+ km)
Ceiling: at least 12,000 feet AGL
Clouds: scattered clouds at 1800 feet AGL
Weather: no significant weather forecast for this period